Sanuki Maru — JG5378 — position and weather

sailwx.info

Track history (hours):
 
Tides and Currents Weather Stations Pressure Air Temp Water Temp Dewpoint Dewpoint Depression Visibility Wind Speed Wind Dir Waves Ship Positions

Sanuki Maru

Last reported at 2017-Oct-18 19:59 UTC. Time now 2017-Oct-18 20:15 UTC.
Position N 35°25' E 139°41'.

Length 36 m; draft 3.8 m.

Type: Tug. MMSI: 431100769.

Date/timePositionNaut miles runAvg speedWind from/ knotsBaromVisibWave heightAir tempDewpointWater temp
2017-Oct-18 19:59N 35°25' E 139°41'0 0.0
2017-Oct-18 19:29N 35°25' E 139°41'0 0.0
2017-Oct-18 18:59N 35°25' E 139°41'0 0.0
2017-Oct-18 18:26N 35°25' E 139°41'0 0.0
2017-Oct-18 17:59N 35°25' E 139°41'0 0.0
2017-Oct-18 17:29N 35°25' E 139°41'0 0.0
2017-Oct-18 16:59N 35°25' E 139°41'0 0.0
2017-Oct-18 16:29N 35°25' E 139°41'0 0.0
2017-Oct-18 15:59N 35°25' E 139°41'0 0.0
2017-Oct-18 15:29N 35°25' E 139°41'0 0.3
2017-Oct-18 15:01N 35°25' E 139°41'10 8.6
2017-Oct-18 13:52N 35°22' E 139°52'4 3.3
2017-Oct-18 12:45N 35°24' E 139°48'1 2.5
2017-Oct-18 12:30N 35°24' E 139°48'0 0.7
2017-Oct-18 12:01N 35°24' E 139°48'1 2.6
2017-Oct-18 11:31N 35°23' E 139°49'2 5.0
2017-Oct-18 11:01N 35°21' E 139°51'1 1.1
2017-Oct-18 10:29N 35°22' E 139°51'2 4.8
2017-Oct-18 10:01N 35°22' E 139°48'0 1.0
2017-Oct-18 09:31N 35°22' E 139°49'1 2.2
2017-Oct-18 09:01N 35°22' E 139°50'0 0.1
2017-Oct-18 08:31N 35°22' E 139°50'0 0.4
2017-Oct-18 08:00N 35°22' E 139°50'1 2.8
2017-Oct-18 07:31N 35°21' E 139°51'0 0.9
2017-Oct-18 07:00N 35°21' E 139°51'0 0.0
2017-Oct-18 06:30N 35°21' E 139°51'0 0.0
2017-Oct-18 05:57N 35°21' E 139°51'0 0.0
2017-Oct-18 05:30N 35°21' E 139°51'1 1.9
2017-Oct-18 05:00N 35°22' E 139°50'612.8
2017-Oct-18 04:30N 35°23' E 139°42'3 5.1
2017-Oct-18 04:01N 35°24' E 139°39'3 6.4
2017-Oct-18 03:30N 35°21' E 139°41'3 5.0
2017-Oct-18 03:00N 35°19' E 139°39'1 1.8
2017-Oct-18 02:30N 35°18' E 139°38'0 0.0
2017-Oct-18 01:59N 35°18' E 139°38'0 0.2
2017-Oct-18 01:30N 35°18' E 139°38'1 1.5
2017-Oct-18 01:00N 35°19' E 139°39'0 0.0
2017-Oct-18 00:29N 35°19' E 139°39'0 0.1
2017-Oct-17 23:57N 35°19' E 139°39'1 2.0
2017-Oct-17 23:30N 35°18' E 139°38'1 1.6
2017-Oct-17 23:00N 35°19' E 139°39'0 0.1
2017-Oct-17 22:31N 35°19' E 139°39'4 7.8
2017-Oct-17 22:01N 35°22' E 139°41'3 5.4
2017-Oct-17 21:26N 35°25' E 139°41'0 0.0
2017-Oct-17 20:59N 35°25' E 139°41'0 0.0
2017-Oct-17 20:29N 35°25' E 139°41'0 0.0
2017-Oct-17 19:59N 35°25' E 139°41'0 0.0
2017-Oct-17 19:29N 35°25' E 139°41'0 0.0
2017-Oct-17 18:59N 35°25' E 139°41'0 0.0
2017-Oct-17 18:29N 35°25' E 139°41'0 0.0
2017-Oct-17 17:59N 35°25' E 139°41'0 0.0
2017-Oct-17 17:29N 35°25' E 139°41'0 0.0
2017-Oct-17 16:59N 35°25' E 139°41'0 0.0
2017-Oct-17 16:29N 35°25' E 139°41'0 0.0
2017-Oct-17 15:59N 35°25' E 139°41'0 0.0
2017-Oct-17 15:29N 35°25' E 139°41'0 0.0
2017-Oct-17 14:59N 35°25' E 139°41'0 0.0
2017-Oct-17 14:26N 35°25' E 139°41'0 0.0
2017-Oct-17 13:59N 35°25' E 139°41'0 0.0
2017-Oct-17 13:29N 35°25' E 139°41'0 0.0
2017-Oct-17 12:59N 35°25' E 139°41'0 0.0
2017-Oct-17 12:29N 35°25' E 139°41'0 0.0
2017-Oct-17 11:59N 35°25' E 139°41'0 0.0
2017-Oct-17 11:29N 35°25' E 139°41'0 0.0
2017-Oct-17 10:59N 35°25' E 139°41'0 0.0
2017-Oct-17 10:29N 35°25' E 139°41'0 0.0
2017-Oct-17 09:59N 35°25' E 139°41'0 0.0
2017-Oct-17 09:29N 35°25' E 139°41'0 0.0
2017-Oct-17 08:59N 35°25' E 139°41'0 0.0
2017-Oct-17 08:29N 35°25' E 139°41'1 2.2
2017-Oct-17 08:00N 35°25' E 139°42'611.4
2017-Oct-17 07:30N 35°23' E 139°49'2 4.0
2017-Oct-17 06:54N 35°23' E 139°52'1 0.9
2017-Oct-17 06:20N 35°22' E 139°52'0 0.0
2017-Oct-17 05:50N 35°22' E 139°52'0 0.0
2017-Oct-17 04:38N 35°22' E 139°52'0 0.0
2017-Oct-17 04:14N 35°22' E 139°52'0 0.0
2017-Oct-17 03:50N 35°22' E 139°52'2 6.3
2017-Oct-17 03:30N 35°23' E 139°50'611.2
2017-Oct-17 03:00N 35°20' E 139°43'4 8.3
2017-Oct-17 02:30N 35°19' E 139°39'0 0.7
2017-Oct-17 02:00N 35°18' E 139°39'0 0.9
2017-Oct-17 01:30N 35°18' E 139°38'1 1.8
2017-Oct-17 00:59N 35°19' E 139°39'0 0.1
2017-Oct-17 00:29N 35°19' E 139°39'1 1.8
2017-Oct-17 00:00N 35°18' E 139°38'0 0.3
2017-Oct-16 23:30N 35°18' E 139°38'1 1.5
2017-Oct-16 23:00N 35°19' E 139°39'0 0.4
2017-Oct-16 22:30N 35°19' E 139°39'1 1.6
2017-Oct-16 22:01N 35°19' E 139°40'0 0.0
2017-Oct-16 21:29N 35°19' E 139°40'0 0.0
2017-Oct-16 20:59N 35°19' E 139°40'0 0.0
2017-Oct-16 20:29N 35°19' E 139°40'0 0.0
2017-Oct-16 19:56N 35°19' E 139°40'0 0.0
2017-Oct-16 19:29N 35°19' E 139°40'0 0.0
2017-Oct-16 18:56N 35°19' E 139°40'0 0.0
2017-Oct-16 18:29N 35°19' E 139°40'0 0.0
2017-Oct-16 17:50N 35°19' E 139°40'0 0.0
2017-Oct-16 17:05N 35°19' E 139°40'0 0.0
2017-Oct-16 16:59N 35°19' E 139°40'0 0.0
2017-Oct-16 16:29N 35°19' E 139°40'0 0.1
2017-Oct-16 16:01N 35°19' E 139°40'511.0
2017-Oct-16 15:30N 35°22' E 139°46'510.2
2017-Oct-16 15:00N 35°22' E 139°52'4 2.5
2017-Oct-16 13:30N 35°24' E 139°48'0 0.1
2017-Oct-16 13:00N 35°24' E 139°48'2 4.4
2017-Oct-16 12:29N 35°23' E 139°51'1 2.9
2017-Oct-16 12:00N 35°22' E 139°52'1 0.8
2017-Oct-16 11:23N 35°22' E 139°51'410.7
2017-Oct-16 11:00N 35°24' E 139°47'510.2
2017-Oct-16 10:31N 35°25' E 139°41'0 0.0
2017-Oct-16 10:00N 35°25' E 139°41'0 0.0
2017-Oct-16 09:30N 35°25' E 139°41'0 0.0
2017-Oct-16 09:00N 35°25' E 139°41'0 0.0
2017-Oct-16 08:30N 35°25' E 139°41'0 0.0
2017-Oct-16 08:00N 35°25' E 139°41'0 0.0
2017-Oct-16 07:30N 35°25' E 139°41'0 0.0
2017-Oct-16 07:00N 35°25' E 139°41'0 0.0
2017-Oct-16 06:30N 35°25' E 139°41'0 0.0
2017-Oct-16 06:00N 35°25' E 139°41'2 3.9
2017-Oct-16 05:30N 35°23' E 139°40'0 1.0
2017-Oct-16 05:00N 35°24' E 139°40'2 3.4
2017-Oct-16 04:30N 35°25' E 139°41'0 0.0
2017-Oct-16 04:00N 35°25' E 139°41'0 0.0
2017-Oct-16 03:30N 35°25' E 139°41'0 0.0
2017-Oct-16 03:00N 35°25' E 139°41'0 0.0
2017-Oct-16 02:30N 35°25' E 139°41'0 0.0
2017-Oct-16 02:00N 35°25' E 139°41'0 0.0
2017-Oct-16 01:29N 35°25' E 139°41'0 0.0
2017-Oct-16 01:00N 35°25' E 139°41'0 0.0
2017-Oct-16 00:30N 35°25' E 139°41'0 0.0
2017-Oct-16 00:00N 35°25' E 139°41'0 0.0
2017-Oct-15 23:30N 35°25' E 139°41'0 0.0
2017-Oct-15 22:59N 35°25' E 139°41'0 0.0
2017-Oct-15 22:30N 35°25' E 139°41'0 0.0
2017-Oct-15 22:00N 35°25' E 139°41'0 0.0
2017-Oct-15 21:29N 35°25' E 139°41'0 0.0
2017-Oct-15 20:59N 35°25' E 139°41'0 0.0
2017-Oct-15 20:30N 35°25' E 139°41'0 0.0
2017-Oct-15 19:59N 35°25' E 139°41'0 0.0
2017-Oct-15 19:29N 35°25' E 139°41'0 0.0
2017-Oct-15 19:00N 35°25' E 139°41'0 0.0
2017-Oct-15 18:30N 35°25' E 139°41'0 0.0
2017-Oct-15 18:00N 35°25' E 139°41'0 0.0
2017-Oct-15 17:30N 35°25' E 139°41'0 0.0
2017-Oct-15 16:59N 35°25' E 139°41'0 0.0
2017-Oct-15 16:29N 35°25' E 139°41'0 0.0
2017-Oct-15 15:59N 35°25' E 139°41'0 0.0
2017-Oct-15 15:29N 35°25' E 139°41'0 0.0
2017-Oct-15 14:59N 35°25' E 139°41'0 0.0
2017-Oct-15 14:00N 35°25' E 139°41'0 0.0
2017-Oct-15 13:29N 35°25' E 139°41'0 0.0
2017-Oct-15 13:00N 35°25' E 139°41'0 0.0
2017-Oct-15 12:26N 35°25' E 139°41'0 0.0
2017-Oct-15 11:59N 35°25' E 139°41'0 0.0
2017-Oct-15 11:30N 35°25' E 139°41'0 0.0
2017-Oct-15 10:59N 35°25' E 139°41'0 0.0
2017-Oct-15 10:29N 35°25' E 139°41'0 0.0
2017-Oct-15 09:53N 35°25' E 139°41'0 0.0
2017-Oct-15 09:29N 35°25' E 139°41'0 0.0
2017-Oct-15 08:59N 35°25' E 139°41'0 0.0
2017-Oct-15 08:29N 35°25' E 139°41'0 0.0
2017-Oct-15 07:59N 35°25' E 139°41'0 0.0
2017-Oct-15 07:29N 35°25' E 139°41'0 0.0
2017-Oct-15 06:59N 35°25' E 139°41'0 0.0
2017-Oct-15 06:29N 35°25' E 139°41'0 0.0
2017-Oct-15 05:59N 35°25' E 139°41'0 0.0
2017-Oct-15 05:26N 35°25' E 139°41'0 0.0
2017-Oct-15 04:56N 35°25' E 139°41'0 0.0
2017-Oct-15 04:29N 35°25' E 139°41'0 0.0
2017-Oct-15 03:59N 35°25' E 139°41'0 0.0
2017-Oct-15 03:29N 35°25' E 139°41'0 0.0
2017-Oct-15 02:59N 35°25' E 139°41'0 0.0
2017-Oct-15 02:29N 35°25' E 139°41'0 0.0
2017-Oct-15 01:59N 35°25' E 139°41'0 0.0
2017-Oct-15 01:29N 35°25' E 139°41'0 0.0
2017-Oct-15 00:59N 35°25' E 139°41'0 0.0
2017-Oct-15 00:29N 35°25' E 139°41'0 0.0
2017-Oct-14 23:59N 35°25' E 139°41'0 0.0
2017-Oct-14 23:29N 35°25' E 139°41'0 0.0
2017-Oct-14 22:59N 35°25' E 139°41'0 0.0
2017-Oct-14 22:29N 35°25' E 139°41'0 0.0
2017-Oct-14 21:59N 35°25' E 139°41'0 0.0
2017-Oct-14 21:29N 35°25' E 139°41'0 0.0
2017-Oct-14 20:59N 35°25' E 139°41'0 0.0
2017-Oct-14 20:29N 35°25' E 139°41'0 0.0
2017-Oct-14 19:59N 35°25' E 139°41'0 0.0
2017-Oct-14 19:29N 35°25' E 139°41'0 0.0
2017-Oct-14 18:59N 35°25' E 139°41'0 0.0
2017-Oct-14 18:26N 35°25' E 139°41'0 0.0
2017-Oct-14 17:59N 35°25' E 139°41'0 0.0
2017-Oct-14 17:29N 35°25' E 139°41'0 0.0
2017-Oct-14 16:59N 35°25' E 139°41'0 0.0
2017-Oct-14 16:29N 35°25' E 139°41'0 0.0
2017-Oct-14 15:59N 35°25' E 139°41'0 0.0
2017-Oct-14 15:29N 35°25' E 139°41'0 0.0
2017-Oct-14 14:59N 35°25' E 139°41'3 6.4
2017-Oct-14 14:30N 35°24' E 139°44'612.2
2017-Oct-14 13:59N 35°22' E 139°52'1 2.6
2017-Oct-14 13:29N 35°22' E 139°53'1 1.5
2017-Oct-14 12:57N 35°22' E 139°53'0 0.0
2017-Oct-14 12:30N 35°22' E 139°53'0 0.0
2017-Oct-14 11:54N 35°22' E 139°53'0 0.0
2017-Oct-14 11:27N 35°22' E 139°53'0 0.0
2017-Oct-14 11:00N 35°22' E 139°53'0 0.0
2017-Oct-14 10:27N 35°22' E 139°53'0 0.0
2017-Oct-14 09:57N 35°22' E 139°53'0 0.0
2017-Oct-14 09:18N 35°22' E 139°53'0 1.3
2017-Oct-14 08:56N 35°22' E 139°53'0 0.8
2017-Oct-14 08:28N 35°22' E 139°53'510.6
2017-Oct-14 08:00N 35°24' E 139°47'510.8
2017-Oct-14 07:30N 35°25' E 139°41'0 0.5
2017-Oct-14 07:00N 35°25' E 139°41'0 0.0
2017-Oct-14 06:30N 35°25' E 139°41'0 0.0
2017-Oct-14 06:00N 35°25' E 139°41'0 0.0
2017-Oct-14 05:30N 35°25' E 139°41'0 0.0
2017-Oct-14 05:00N 35°25' E 139°41'0 0.0
2017-Oct-14 04:30N 35°25' E 139°41'0 0.0
2017-Oct-14 04:00N 35°25' E 139°41'0 0.0
2017-Oct-14 03:30N 35°25' E 139°41'0 0.0
2017-Oct-14 03:00N 35°25' E 139°41'0 0.0
2017-Oct-14 02:30N 35°25' E 139°41'0 0.0
2017-Oct-14 02:00N 35°25' E 139°41'0 0.0
2017-Oct-14 01:30N 35°25' E 139°41'0 0.0
2017-Oct-14 01:00N 35°25' E 139°41'0 0.0
2017-Oct-14 00:30N 35°25' E 139°41'0 0.0
2017-Oct-14 00:00N 35°25' E 139°41'0 0.0
2017-Oct-13 23:30N 35°25' E 139°41'0 0.0
2017-Oct-13 23:00N 35°25' E 139°41'0 0.0
2017-Oct-13 22:30N 35°25' E 139°41'0 0.0
2017-Oct-13 22:00N 35°25' E 139°41'0 0.0
2017-Oct-13 21:30N 35°25' E 139°41'0 0.0
2017-Oct-13 20:59N 35°25' E 139°41'0 0.0
2017-Oct-13 20:30N 35°25' E 139°41'0 0.0
2017-Oct-13 20:00N 35°25' E 139°41'0 0.0
2017-Oct-13 19:30N 35°25' E 139°41'0 0.0
2017-Oct-13 19:00N 35°25' E 139°41'0 0.0
2017-Oct-13 18:30N 35°25' E 139°41'0 0.0
2017-Oct-13 18:00N 35°25' E 139°41'0 0.0
2017-Oct-13 17:30N 35°25' E 139°41'0 0.0
2017-Oct-13 17:00N 35°25' E 139°41'0 0.0
2017-Oct-13 16:29N 35°25' E 139°41'0 0.0
2017-Oct-13 15:59N 35°25' E 139°41'0 0.0
2017-Oct-13 15:29N 35°25' E 139°41'0 0.0
2017-Oct-13 15:00N 35°25' E 139°41'0 0.0
2017-Oct-13 14:30N 35°25' E 139°41'0 0.0
2017-Oct-13 14:00N 35°25' E 139°41'0 0.0
2017-Oct-13 13:29N 35°25' E 139°41'0 0.0
2017-Oct-13 13:00N 35°25' E 139°41'0 0.0
2017-Oct-13 12:29N 35°25' E 139°41'0 0.0
2017-Oct-13 12:00N 35°25' E 139°41'0 0.0
2017-Oct-13 11:30N 35°25' E 139°41'0 0.0
2017-Oct-13 10:59N 35°25' E 139°41'0 0.0
2017-Oct-13 10:29N 35°25' E 139°41'0 0.0
2017-Oct-13 09:59N 35°25' E 139°41'1 1.3
2017-Oct-13 09:31N 35°25' E 139°42'3 5.2
2017-Oct-13 09:00N 35°23' E 139°39'0 0.0
2017-Oct-13 08:31N 35°23' E 139°39'0 0.4
2017-Oct-13 08:00N 35°23' E 139°39'4 8.2
2017-Oct-13 07:30N 35°23' E 139°44'4 8.9
2017-Oct-13 07:00N 35°23' E 139°49'2 4.2
2017-Oct-13 06:25N 35°22' E 139°52'0 0.4
2017-Oct-13 05:34N 35°22' E 139°52'1 2.5
2017-Oct-13 05:13N 35°23' E 139°51'1 4.2
2017-Oct-13 04:59N 35°23' E 139°50'3 5.9
2017-Oct-13 04:30N 35°26' E 139°49'2 3.9
2017-Oct-13 04:00N 35°27' E 139°51'2 4.6
2017-Oct-13 03:30N 35°26' E 139°48'5 9.8
2017-Oct-13 03:00N 35°25' E 139°43'1 2.6
2017-Oct-13 02:27N 35°25' E 139°41'0 0.0
2017-Oct-13 01:58N 35°25' E 139°41'0 0.0
2017-Oct-13 01:30N 35°25' E 139°41'0 0.0
2017-Oct-13 01:01N 35°25' E 139°41'0 0.0
2017-Oct-13 00:31N 35°25' E 139°41'0 0.0
2017-Oct-13 00:00N 35°25' E 139°41'0 0.0
2017-Oct-12 23:28N 35°25' E 139°41'0 0.0
2017-Oct-12 23:01N 35°25' E 139°41'0 0.0
2017-Oct-12 22:28N 35°25' E 139°41'0 0.0
2017-Oct-12 22:00N 35°25' E 139°41'0 0.0
2017-Oct-12 21:31N 35°25' E 139°41'0 0.0
2017-Oct-12 21:00N 35°25' E 139°41'0 0.0
2017-Oct-12 20:27N 35°25' E 139°41'0 0.0
2017-Oct-12 19:55N 35°25' E 139°41'0 0.0
2017-Oct-12 19:27N 35°25' E 139°41'0 0.0
2017-Oct-12 19:00N 35°25' E 139°41'0 0.0
2017-Oct-12 18:31N 35°25' E 139°41'0 0.0
2017-Oct-12 18:01N 35°25' E 139°41'0 0.0
2017-Oct-12 17:31N 35°25' E 139°41'0 0.0
2017-Oct-12 17:00N 35°25' E 139°41'0 0.0
2017-Oct-12 16:28N 35°25' E 139°41'0 0.0
2017-Oct-12 16:00N 35°25' E 139°41'0 0.0
2017-Oct-12 15:30N 35°25' E 139°41'0 0.0
2017-Oct-12 15:00N 35°25' E 139°41'0 0.0
2017-Oct-12 14:30N 35°25' E 139°41'0 0.0
2017-Oct-12 14:00N 35°25' E 139°41'0 0.0
2017-Oct-12 13:30N 35°25' E 139°41'0 0.0
2017-Oct-12 13:00N 35°25' E 139°41'0 0.0
2017-Oct-12 12:30N 35°25' E 139°41'0 0.0
2017-Oct-12 11:54N 35°25' E 139°41'0 0.0
2017-Oct-12 11:30N 35°25' E 139°41'0 0.0
2017-Oct-12 10:55N 35°25' E 139°41'0 0.0
2017-Oct-12 10:30N 35°25' E 139°41'0 0.0
2017-Oct-12 10:00N 35°25' E 139°41'0 0.0
2017-Oct-12 09:30N 35°25' E 139°41'0 0.0
2017-Oct-12 09:01N 35°25' E 139°41'0 0.0
2017-Oct-12 08:30N 35°25' E 139°41'0 0.0
2017-Oct-12 08:00N 35°25' E 139°41'0 0.0
2017-Oct-12 07:30N 35°25' E 139°41'0 0.0
2017-Oct-12 06:57N 35°25' E 139°41'0 0.0
2017-Oct-12 06:30N 35°25' E 139°41'0 0.0
2017-Oct-12 06:00N 35°25' E 139°41'0 0.0
2017-Oct-12 05:30N 35°25' E 139°41'0 0.0
2017-Oct-12 05:00N 35°25' E 139°41'0 0.0
2017-Oct-12 04:27N 35°25' E 139°41'0 0.0
2017-Oct-12 04:01N 35°25' E 139°41'0 0.0
2017-Oct-12 03:30N 35°25' E 139°41'0 0.0
2017-Oct-12 03:00N 35°25' E 139°41'0 0.0
2017-Oct-12 02:30N 35°25' E 139°41'0 0.0
2017-Oct-12 02:00N 35°25' E 139°41'1 1.6
2017-Oct-12 01:31N 35°25' E 139°42'611.2
2017-Oct-12 01:01N 35°22' E 139°48'2 1.8
2017-Oct-11 23:51N 35°20' E 139°49'0 0.1
2017-Oct-11 23:05N 35°20' E 139°49'0 1.5
2017-Oct-11 22:55N 35°21' E 139°49'0 0.2
2017-Oct-11 22:14N 35°20' E 139°49'0 0.1
2017-Oct-11 21:44N 35°21' E 139°49'0 0.1
2017-Oct-11 21:23N 35°20' E 139°49'0 1.0
2017-Oct-11 21:00N 35°21' E 139°49'0 0.5
2017-Oct-11 20:06N 35°20' E 139°49'0 2.2
2017-Oct-11 19:57N 35°21' E 139°49'0 0.0
2017-Oct-11 00:00N 35°20' E 139°49'2 2.3
2017-Oct-10 23:14N 35°22' E 139°48'7 0.4
2017-Oct-10 07:28N 35°25' E 139°41'1 1.5
2017-Oct-10 06:58N 35°26' E 139°41'0 0.0
2017-Oct-10 06:28N 35°26' E 139°41'0 0.0
2017-Oct-10 05:55N 35°26' E 139°41'0 0.1
2017-Oct-10 05:30N 35°26' E 139°41'2 4.1
2017-Oct-10 05:00N 35°27' E 139°40'1 1.8
2017-Oct-10 04:30N 35°27' E 139°41'3 5.5
2017-Oct-10 04:00N 35°25' E 139°42'3 6.2
2017-Oct-10 03:30N 35°22' E 139°42'3 6.1
2017-Oct-10 03:00N 35°19' E 139°42'2 3.7
2017-Oct-10 02:31N 35°17' E 139°41'0 0.1
2017-Oct-10 01:59N 35°17' E 139°41'0 0.1
2017-Oct-10 01:30N 35°17' E 139°41'0 0.0
2017-Oct-10 01:00N 35°17' E 139°41'0 0.2
2017-Oct-10 00:30N 35°17' E 139°41'0 0.3
2017-Oct-10 00:00N 35°17' E 139°41'0 0.1
2017-Oct-09 23:30N 35°17' E 139°41'0 0.0
2017-Oct-09 23:00N 35°17' E 139°41'2 3.2
2017-Oct-09 22:30N 35°18' E 139°41'1 2.1
2017-Oct-09 22:00N 35°19' E 139°40'3 4.8
2017-Oct-09 21:27N 35°21' E 139°41'4 0.2
2017-Oct-09 04:59N 35°25' E 139°41'612.1
2017-Oct-09 04:30N 35°19' E 139°42'611.4
2017-Oct-09 04:00N 35°14' E 139°45'611.3
2017-Oct-09 03:30N 35°09' E 139°43'510.5
2017-Oct-09 03:00N 35°05' E 139°39'611.6
2017-Oct-09 02:30N 35°01' E 139°34'611.8
2017-Oct-09 02:00N 34°56' E 139°29'  
Track history (hours):
 
Tides and Currents Weather Stations Pressure Air Temp Water Temp Dewpoint Dewpoint Depression Visibility Wind Speed Wind Dir Waves Ship Positions

Sanuki Maru

Last reported at 2017-Oct-18 19:59 UTC. Time now 2017-Oct-18 20:15 UTC.
Position N 35°25' E 139°41'.

Length 36 m; draft 3.8 m.

Type: Tug. MMSI: 431100769.

Date/timePositionNaut miles runAvg speedWind from/ knotsBaromVisibWave heightAir tempDewpointWater temp
2017-Oct-18 19:59N 35°25' E 139°41'0 0.0
2017-Oct-18 19:29N 35°25' E 139°41'0 0.0
2017-Oct-18 18:59N 35°25' E 139°41'0 0.0
2017-Oct-18 18:26N 35°25' E 139°41'0 0.0
2017-Oct-18 17:59N 35°25' E 139°41'0 0.0
2017-Oct-18 17:29N 35°25' E 139°41'0 0.0
2017-Oct-18 16:59N 35°25' E 139°41'0 0.0
2017-Oct-18 16:29N 35°25' E 139°41'0 0.0
2017-Oct-18 15:59N 35°25' E 139°41'0 0.0
2017-Oct-18 15:29N 35°25' E 139°41'0 0.3
2017-Oct-18 15:01N 35°25' E 139°41'10 8.6
2017-Oct-18 13:52N 35°22' E 139°52'4 3.3
2017-Oct-18 12:45N 35°24' E 139°48'1 2.5
2017-Oct-18 12:30N 35°24' E 139°48'0 0.7
2017-Oct-18 12:01N 35°24' E 139°48'1 2.6
2017-Oct-18 11:31N 35°23' E 139°49'2 5.0
2017-Oct-18 11:01N 35°21' E 139°51'1 1.1
2017-Oct-18 10:29N 35°22' E 139°51'2 4.8
2017-Oct-18 10:01N 35°22' E 139°48'0 1.0
2017-Oct-18 09:31N 35°22' E 139°49'1 2.2
2017-Oct-18 09:01N 35°22' E 139°50'0 0.1
2017-Oct-18 08:31N 35°22' E 139°50'0 0.4
2017-Oct-18 08:00N 35°22' E 139°50'1 2.8
2017-Oct-18 07:31N 35°21' E 139°51'0 0.9
2017-Oct-18 07:00N 35°21' E 139°51'0 0.0
2017-Oct-18 06:30N 35°21' E 139°51'0 0.0
2017-Oct-18 05:57N 35°21' E 139°51'0 0.0
2017-Oct-18 05:30N 35°21' E 139°51'1 1.9
2017-Oct-18 05:00N 35°22' E 139°50'612.8
2017-Oct-18 04:30N 35°23' E 139°42'3 5.1
2017-Oct-18 04:01N 35°24' E 139°39'3 6.4
2017-Oct-18 03:30N 35°21' E 139°41'3 5.0
2017-Oct-18 03:00N 35°19' E 139°39'1 1.8
2017-Oct-18 02:30N 35°18' E 139°38'0 0.0
2017-Oct-18 01:59N 35°18' E 139°38'0 0.2
2017-Oct-18 01:30N 35°18' E 139°38'1 1.5
2017-Oct-18 01:00N 35°19' E 139°39'0 0.0
2017-Oct-18 00:29N 35°19' E 139°39'0 0.1
2017-Oct-17 23:57N 35°19' E 139°39'1 2.0
2017-Oct-17 23:30N 35°18' E 139°38'1 1.6
2017-Oct-17 23:00N 35°19' E 139°39'0 0.1
2017-Oct-17 22:31N 35°19' E 139°39'4 7.8
2017-Oct-17 22:01N 35°22' E 139°41'3 5.4
2017-Oct-17 21:26N 35°25' E 139°41'0 0.0
2017-Oct-17 20:59N 35°25' E 139°41'0 0.0
2017-Oct-17 20:29N 35°25' E 139°41'0 0.0
2017-Oct-17 19:59N 35°25' E 139°41'0 0.0
2017-Oct-17 19:29N 35°25' E 139°41'0 0.0
2017-Oct-17 18:59N 35°25' E 139°41'0 0.0
2017-Oct-17 18:29N 35°25' E 139°41'0 0.0
2017-Oct-17 17:59N 35°25' E 139°41'0 0.0
2017-Oct-17 17:29N 35°25' E 139°41'0 0.0
2017-Oct-17 16:59N 35°25' E 139°41'0 0.0
2017-Oct-17 16:29N 35°25' E 139°41'0 0.0
2017-Oct-17 15:59N 35°25' E 139°41'0 0.0
2017-Oct-17 15:29N 35°25' E 139°41'0 0.0
2017-Oct-17 14:59N 35°25' E 139°41'0 0.0
2017-Oct-17 14:26N 35°25' E 139°41'0 0.0
2017-Oct-17 13:59N 35°25' E 139°41'0 0.0
2017-Oct-17 13:29N 35°25' E 139°41'0 0.0
2017-Oct-17 12:59N 35°25' E 139°41'0 0.0
2017-Oct-17 12:29N 35°25' E 139°41'0 0.0
2017-Oct-17 11:59N 35°25' E 139°41'0 0.0
2017-Oct-17 11:29N 35°25' E 139°41'0 0.0
2017-Oct-17 10:59N 35°25' E 139°41'0 0.0
2017-Oct-17 10:29N 35°25' E 139°41'0 0.0
2017-Oct-17 09:59N 35°25' E 139°41'0 0.0
2017-Oct-17 09:29N 35°25' E 139°41'0 0.0
2017-Oct-17 08:59N 35°25' E 139°41'0 0.0
2017-Oct-17 08:29N 35°25' E 139°41'1 2.2
2017-Oct-17 08:00N 35°25' E 139°42'611.4
2017-Oct-17 07:30N 35°23' E 139°49'2 4.0
2017-Oct-17 06:54N 35°23' E 139°52'1 0.9
2017-Oct-17 06:20N 35°22' E 139°52'0 0.0
2017-Oct-17 05:50N 35°22' E 139°52'0 0.0
2017-Oct-17 04:38N 35°22' E 139°52'0 0.0
2017-Oct-17 04:14N 35°22' E 139°52'0 0.0
2017-Oct-17 03:50N 35°22' E 139°52'2 6.3
2017-Oct-17 03:30N 35°23' E 139°50'611.2
2017-Oct-17 03:00N 35°20' E 139°43'4 8.3
2017-Oct-17 02:30N 35°19' E 139°39'0 0.7
2017-Oct-17 02:00N 35°18' E 139°39'0 0.9
2017-Oct-17 01:30N 35°18' E 139°38'1 1.8
2017-Oct-17 00:59N 35°19' E 139°39'0 0.1
2017-Oct-17 00:29N 35°19' E 139°39'1 1.8
2017-Oct-17 00:00N 35°18' E 139°38'0 0.3
2017-Oct-16 23:30N 35°18' E 139°38'1 1.5
2017-Oct-16 23:00N 35°19' E 139°39'0 0.4
2017-Oct-16 22:30N 35°19' E 139°39'1 1.6
2017-Oct-16 22:01N 35°19' E 139°40'0 0.0
2017-Oct-16 21:29N 35°19' E 139°40'0 0.0
2017-Oct-16 20:59N 35°19' E 139°40'0 0.0
2017-Oct-16 20:29N 35°19' E 139°40'0 0.0
2017-Oct-16 19:56N 35°19' E 139°40'0 0.0
2017-Oct-16 19:29N 35°19' E 139°40'0 0.0
2017-Oct-16 18:56N 35°19' E 139°40'0 0.0
2017-Oct-16 18:29N 35°19' E 139°40'0 0.0
2017-Oct-16 17:50N 35°19' E 139°40'0 0.0
2017-Oct-16 17:05N 35°19' E 139°40'0 0.0
2017-Oct-16 16:59N 35°19' E 139°40'0 0.0
2017-Oct-16 16:29N 35°19' E 139°40'0 0.1
2017-Oct-16 16:01N 35°19' E 139°40'511.0
2017-Oct-16 15:30N 35°22' E 139°46'510.2
2017-Oct-16 15:00N 35°22' E 139°52'4 2.5
2017-Oct-16 13:30N 35°24' E 139°48'0 0.1
2017-Oct-16 13:00N 35°24' E 139°48'2 4.4
2017-Oct-16 12:29N 35°23' E 139°51'1 2.9
2017-Oct-16 12:00N 35°22' E 139°52'1 0.8
2017-Oct-16 11:23N 35°22' E 139°51'410.7
2017-Oct-16 11:00N 35°24' E 139°47'510.2
2017-Oct-16 10:31N 35°25' E 139°41'0 0.0
2017-Oct-16 10:00N 35°25' E 139°41'0 0.0
2017-Oct-16 09:30N 35°25' E 139°41'0 0.0
2017-Oct-16 09:00N 35°25' E 139°41'0 0.0
2017-Oct-16 08:30N 35°25' E 139°41'0 0.0
2017-Oct-16 08:00N 35°25' E 139°41'0 0.0
2017-Oct-16 07:30N 35°25' E 139°41'0 0.0
2017-Oct-16 07:00N 35°25' E 139°41'0 0.0
2017-Oct-16 06:30N 35°25' E 139°41'0 0.0
2017-Oct-16 06:00N 35°25' E 139°41'2 3.9
2017-Oct-16 05:30N 35°23' E 139°40'0 1.0
2017-Oct-16 05:00N 35°24' E 139°40'2 3.4
2017-Oct-16 04:30N 35°25' E 139°41'0 0.0
2017-Oct-16 04:00N 35°25' E 139°41'0 0.0
2017-Oct-16 03:30N 35°25' E 139°41'0 0.0
2017-Oct-16 03:00N 35°25' E 139°41'0 0.0
2017-Oct-16 02:30N 35°25' E 139°41'0 0.0
2017-Oct-16 02:00N 35°25' E 139°41'0 0.0
2017-Oct-16 01:29N 35°25' E 139°41'0 0.0
2017-Oct-16 01:00N 35°25' E 139°41'0 0.0
2017-Oct-16 00:30N 35°25' E 139°41'0 0.0
2017-Oct-16 00:00N 35°25' E 139°41'0 0.0
2017-Oct-15 23:30N 35°25' E 139°41'0 0.0
2017-Oct-15 22:59N 35°25' E 139°41'0 0.0
2017-Oct-15 22:30N 35°25' E 139°41'0 0.0
2017-Oct-15 22:00N 35°25' E 139°41'0 0.0
2017-Oct-15 21:29N 35°25' E 139°41'0 0.0
2017-Oct-15 20:59N 35°25' E 139°41'0 0.0
2017-Oct-15 20:30N 35°25' E 139°41'0 0.0
2017-Oct-15 19:59N 35°25' E 139°41'0 0.0
2017-Oct-15 19:29N 35°25' E 139°41'0 0.0
2017-Oct-15 19:00N 35°25' E 139°41'0 0.0
2017-Oct-15 18:30N 35°25' E 139°41'0 0.0
2017-Oct-15 18:00N 35°25' E 139°41'0 0.0
2017-Oct-15 17:30N 35°25' E 139°41'0 0.0
2017-Oct-15 16:59N 35°25' E 139°41'0 0.0
2017-Oct-15 16:29N 35°25' E 139°41'0 0.0
2017-Oct-15 15:59N 35°25' E 139°41'0 0.0
2017-Oct-15 15:29N 35°25' E 139°41'0 0.0
2017-Oct-15 14:59N 35°25' E 139°41'0 0.0
2017-Oct-15 14:00N 35°25' E 139°41'0 0.0
2017-Oct-15 13:29N 35°25' E 139°41'0 0.0
2017-Oct-15 13:00N 35°25' E 139°41'0 0.0
2017-Oct-15 12:26N 35°25' E 139°41'0 0.0
2017-Oct-15 11:59N 35°25' E 139°41'0 0.0
2017-Oct-15 11:30N 35°25' E 139°41'0 0.0
2017-Oct-15 10:59N 35°25' E 139°41'0 0.0
2017-Oct-15 10:29N 35°25' E 139°41'0 0.0
2017-Oct-15 09:53N 35°25' E 139°41'0 0.0
2017-Oct-15 09:29N 35°25' E 139°41'0 0.0
2017-Oct-15 08:59N 35°25' E 139°41'0 0.0
2017-Oct-15 08:29N 35°25' E 139°41'0 0.0
2017-Oct-15 07:59N 35°25' E 139°41'0 0.0
2017-Oct-15 07:29N 35°25' E 139°41'0 0.0
2017-Oct-15 06:59N 35°25' E 139°41'0 0.0
2017-Oct-15 06:29N 35°25' E 139°41'0 0.0
2017-Oct-15 05:59N 35°25' E 139°41'0 0.0
2017-Oct-15 05:26N 35°25' E 139°41'0 0.0
2017-Oct-15 04:56N 35°25' E 139°41'0 0.0
2017-Oct-15 04:29N 35°25' E 139°41'0 0.0
2017-Oct-15 03:59N 35°25' E 139°41'0 0.0
2017-Oct-15 03:29N 35°25' E 139°41'0 0.0
2017-Oct-15 02:59N 35°25' E 139°41'0 0.0
2017-Oct-15 02:29N 35°25' E 139°41'0 0.0
2017-Oct-15 01:59N 35°25' E 139°41'0 0.0
2017-Oct-15 01:29N 35°25' E 139°41'0 0.0
2017-Oct-15 00:59N 35°25' E 139°41'0 0.0
2017-Oct-15 00:29N 35°25' E 139°41'0 0.0
2017-Oct-14 23:59N 35°25' E 139°41'0 0.0
2017-Oct-14 23:29N 35°25' E 139°41'0 0.0
2017-Oct-14 22:59N 35°25' E 139°41'0 0.0
2017-Oct-14 22:29N 35°25' E 139°41'0 0.0
2017-Oct-14 21:59N 35°25' E 139°41'0 0.0
2017-Oct-14 21:29N 35°25' E 139°41'0 0.0
2017-Oct-14 20:59N 35°25' E 139°41'0 0.0
2017-Oct-14 20:29N 35°25' E 139°41'0 0.0
2017-Oct-14 19:59N 35°25' E 139°41'0 0.0
2017-Oct-14 19:29N 35°25' E 139°41'0 0.0
2017-Oct-14 18:59N 35°25' E 139°41'0 0.0
2017-Oct-14 18:26N 35°25' E 139°41'0 0.0
2017-Oct-14 17:59N 35°25' E 139°41'0 0.0
2017-Oct-14 17:29N 35°25' E 139°41'0 0.0
2017-Oct-14 16:59N 35°25' E 139°41'0 0.0
2017-Oct-14 16:29N 35°25' E 139°41'0 0.0
2017-Oct-14 15:59N 35°25' E 139°41'0 0.0
2017-Oct-14 15:29N 35°25' E 139°41'0 0.0
2017-Oct-14 14:59N 35°25' E 139°41'3 6.4
2017-Oct-14 14:30N 35°24' E 139°44'612.2
2017-Oct-14 13:59N 35°22' E 139°52'1 2.6
2017-Oct-14 13:29N 35°22' E 139°53'1 1.5
2017-Oct-14 12:57N 35°22' E 139°53'0 0.0
2017-Oct-14 12:30N 35°22' E 139°53'0 0.0
2017-Oct-14 11:54N 35°22' E 139°53'0 0.0
2017-Oct-14 11:27N 35°22' E 139°53'0 0.0
2017-Oct-14 11:00N 35°22' E 139°53'0 0.0
2017-Oct-14 10:27N 35°22' E 139°53'0 0.0
2017-Oct-14 09:57N 35°22' E 139°53'0 0.0
2017-Oct-14 09:18N 35°22' E 139°53'0 1.3
2017-Oct-14 08:56N 35°22' E 139°53'0 0.8
2017-Oct-14 08:28N 35°22' E 139°53'510.6
2017-Oct-14 08:00N 35°24' E 139°47'510.8
2017-Oct-14 07:30N 35°25' E 139°41'0 0.5
2017-Oct-14 07:00N 35°25' E 139°41'0 0.0
2017-Oct-14 06:30N 35°25' E 139°41'0 0.0
2017-Oct-14 06:00N 35°25' E 139°41'0 0.0
2017-Oct-14 05:30N 35°25' E 139°41'0 0.0
2017-Oct-14 05:00N 35°25' E 139°41'0 0.0
2017-Oct-14 04:30N 35°25' E 139°41'0 0.0
2017-Oct-14 04:00N 35°25' E 139°41'0 0.0
2017-Oct-14 03:30N 35°25' E 139°41'0 0.0
2017-Oct-14 03:00N 35°25' E 139°41'0 0.0
2017-Oct-14 02:30N 35°25' E 139°41'0 0.0
2017-Oct-14 02:00N 35°25' E 139°41'0 0.0
2017-Oct-14 01:30N 35°25' E 139°41'0 0.0
2017-Oct-14 01:00N 35°25' E 139°41'0 0.0
2017-Oct-14 00:30N 35°25' E 139°41'0 0.0
2017-Oct-14 00:00N 35°25' E 139°41'0 0.0
2017-Oct-13 23:30N 35°25' E 139°41'0 0.0
2017-Oct-13 23:00N 35°25' E 139°41'0 0.0
2017-Oct-13 22:30N 35°25' E 139°41'0 0.0
2017-Oct-13 22:00N 35°25' E 139°41'0 0.0
2017-Oct-13 21:30N 35°25' E 139°41'0 0.0
2017-Oct-13 20:59N 35°25' E 139°41'0 0.0
2017-Oct-13 20:30N 35°25' E 139°41'0 0.0
2017-Oct-13 20:00N 35°25' E 139°41'0 0.0
2017-Oct-13 19:30N 35°25' E 139°41'0 0.0
2017-Oct-13 19:00N 35°25' E 139°41'0 0.0
2017-Oct-13 18:30N 35°25' E 139°41'0 0.0
2017-Oct-13 18:00N 35°25' E 139°41'0 0.0
2017-Oct-13 17:30N 35°25' E 139°41'0 0.0
2017-Oct-13 17:00N 35°25' E 139°41'0 0.0
2017-Oct-13 16:29N 35°25' E 139°41'0 0.0
2017-Oct-13 15:59N 35°25' E 139°41'0 0.0
2017-Oct-13 15:29N 35°25' E 139°41'0 0.0
2017-Oct-13 15:00N 35°25' E 139°41'0 0.0
2017-Oct-13 14:30N 35°25' E 139°41'0 0.0
2017-Oct-13 14:00N 35°25' E 139°41'0 0.0
2017-Oct-13 13:29N 35°25' E 139°41'0 0.0
2017-Oct-13 13:00N 35°25' E 139°41'0 0.0
2017-Oct-13 12:29N 35°25' E 139°41'0 0.0
2017-Oct-13 12:00N 35°25' E 139°41'0 0.0
2017-Oct-13 11:30N 35°25' E 139°41'0 0.0
2017-Oct-13 10:59N 35°25' E 139°41'0 0.0
2017-Oct-13 10:29N 35°25' E 139°41'0 0.0
2017-Oct-13 09:59N 35°25' E 139°41'1 1.3
2017-Oct-13 09:31N 35°25' E 139°42'3 5.2
2017-Oct-13 09:00N 35°23' E 139°39'0 0.0
2017-Oct-13 08:31N 35°23' E 139°39'0 0.4
2017-Oct-13 08:00N 35°23' E 139°39'4 8.2
2017-Oct-13 07:30N 35°23' E 139°44'4 8.9
2017-Oct-13 07:00N 35°23' E 139°49'2 4.2
2017-Oct-13 06:25N 35°22' E 139°52'0 0.4
2017-Oct-13 05:34N 35°22' E 139°52'1 2.5
2017-Oct-13 05:13N 35°23' E 139°51'1 4.2
2017-Oct-13 04:59N 35°23' E 139°50'3 5.9
2017-Oct-13 04:30N 35°26' E 139°49'2 3.9
2017-Oct-13 04:00N 35°27' E 139°51'2 4.6
2017-Oct-13 03:30N 35°26' E 139°48'5 9.8
2017-Oct-13 03:00N 35°25' E 139°43'1 2.6
2017-Oct-13 02:27N 35°25' E 139°41'0 0.0
2017-Oct-13 01:58N 35°25' E 139°41'0 0.0
2017-Oct-13 01:30N 35°25' E 139°41'0 0.0
2017-Oct-13 01:01N 35°25' E 139°41'0 0.0
2017-Oct-13 00:31N 35°25' E 139°41'0 0.0
2017-Oct-13 00:00N 35°25' E 139°41'0 0.0
2017-Oct-12 23:28N 35°25' E 139°41'0 0.0
2017-Oct-12 23:01N 35°25' E 139°41'0 0.0
2017-Oct-12 22:28N 35°25' E 139°41'0 0.0
2017-Oct-12 22:00N 35°25' E 139°41'0 0.0
2017-Oct-12 21:31N 35°25' E 139°41'0 0.0
2017-Oct-12 21:00N 35°25' E 139°41'0 0.0
2017-Oct-12 20:27N 35°25' E 139°41'0 0.0
2017-Oct-12 19:55N 35°25' E 139°41'0 0.0
2017-Oct-12 19:27N 35°25' E 139°41'0 0.0
2017-Oct-12 19:00N 35°25' E 139°41'0 0.0
2017-Oct-12 18:31N 35°25' E 139°41'0 0.0
2017-Oct-12 18:01N 35°25' E 139°41'0 0.0
2017-Oct-12 17:31N 35°25' E 139°41'0 0.0
2017-Oct-12 17:00N 35°25' E 139°41'0 0.0
2017-Oct-12 16:28N 35°25' E 139°41'0 0.0
2017-Oct-12 16:00N 35°25' E 139°41'0 0.0
2017-Oct-12 15:30N 35°25' E 139°41'0 0.0
2017-Oct-12 15:00N 35°25' E 139°41'0 0.0
2017-Oct-12 14:30N 35°25' E 139°41'0 0.0
2017-Oct-12 14:00N 35°25' E 139°41'0 0.0
2017-Oct-12 13:30N 35°25' E 139°41'0 0.0
2017-Oct-12 13:00N 35°25' E 139°41'0 0.0
2017-Oct-12 12:30N 35°25' E 139°41'0 0.0
2017-Oct-12 11:54N 35°25' E 139°41'0 0.0
2017-Oct-12 11:30N 35°25' E 139°41'0 0.0
2017-Oct-12 10:55N 35°25' E 139°41'0 0.0
2017-Oct-12 10:30N 35°25' E 139°41'0 0.0
2017-Oct-12 10:00N 35°25' E 139°41'0 0.0
2017-Oct-12 09:30N 35°25' E 139°41'0 0.0
2017-Oct-12 09:01N 35°25' E 139°41'0 0.0
2017-Oct-12 08:30N 35°25' E 139°41'0 0.0
2017-Oct-12 08:00N 35°25' E 139°41'0 0.0
2017-Oct-12 07:30N 35°25' E 139°41'0 0.0
2017-Oct-12 06:57N 35°25' E 139°41'0 0.0
2017-Oct-12 06:30N 35°25' E 139°41'0 0.0
2017-Oct-12 06:00N 35°25' E 139°41'0 0.0
2017-Oct-12 05:30N 35°25' E 139°41'0 0.0
2017-Oct-12 05:00N 35°25' E 139°41'0 0.0
2017-Oct-12 04:27N 35°25' E 139°41'0 0.0
2017-Oct-12 04:01N 35°25' E 139°41'0 0.0
2017-Oct-12 03:30N 35°25' E 139°41'0 0.0
2017-Oct-12 03:00N 35°25' E 139°41'0 0.0
2017-Oct-12 02:30N 35°25' E 139°41'0 0.0
2017-Oct-12 02:00N 35°25' E 139°41'1 1.6
2017-Oct-12 01:31N 35°25' E 139°42'611.2
2017-Oct-12 01:01N 35°22' E 139°48'2 1.8
2017-Oct-11 23:51N 35°20' E 139°49'0 0.1
2017-Oct-11 23:05N 35°20' E 139°49'0 1.5
2017-Oct-11 22:55N 35°21' E 139°49'0 0.2
2017-Oct-11 22:14N 35°20' E 139°49'0 0.1
2017-Oct-11 21:44N 35°21' E 139°49'0 0.1
2017-Oct-11 21:23N 35°20' E 139°49'0 1.0
2017-Oct-11 21:00N 35°21' E 139°49'0 0.5
2017-Oct-11 20:06N 35°20' E 139°49'0 2.2
2017-Oct-11 19:57N 35°21' E 139°49'0 0.0
2017-Oct-11 00:00N 35°20' E 139°49'2 2.3
2017-Oct-10 23:14N 35°22' E 139°48'7 0.4
2017-Oct-10 07:28N 35°25' E 139°41'1 1.5
2017-Oct-10 06:58N 35°26' E 139°41'0 0.0
2017-Oct-10 06:28N 35°26' E 139°41'0 0.0
2017-Oct-10 05:55N 35°26' E 139°41'0 0.1
2017-Oct-10 05:30N 35°26' E 139°41'2 4.1
2017-Oct-10 05:00N 35°27' E 139°40'1 1.8
2017-Oct-10 04:30N 35°27' E 139°41'3 5.5
2017-Oct-10 04:00N 35°25' E 139°42'3 6.2
2017-Oct-10 03:30N 35°22' E 139°42'3 6.1
2017-Oct-10 03:00N 35°19' E 139°42'2 3.7
2017-Oct-10 02:31N 35°17' E 139°41'0 0.1
2017-Oct-10 01:59N 35°17' E 139°41'0 0.1
2017-Oct-10 01:30N 35°17' E 139°41'0 0.0
2017-Oct-10 01:00N 35°17' E 139°41'0 0.2
2017-Oct-10 00:30N 35°17' E 139°41'0 0.3
2017-Oct-10 00:00N 35°17' E 139°41'0 0.1
2017-Oct-09 23:30N 35°17' E 139°41'0 0.0
2017-Oct-09 23:00N 35°17' E 139°41'2 3.2
2017-Oct-09 22:30N 35°18' E 139°41'1 2.1
2017-Oct-09 22:00N 35°19' E 139°40'3 4.8
2017-Oct-09 21:27N 35°21' E 139°41'4 0.2
2017-Oct-09 04:59N 35°25' E 139°41'612.1
2017-Oct-09 04:30N 35°19' E 139°42'611.4
2017-Oct-09 04:00N 35°14' E 139°45'611.3
2017-Oct-09 03:30N 35°09' E 139°43'510.5
2017-Oct-09 03:00N 35°05' E 139°39'611.6
2017-Oct-09 02:30N 35°01' E 139°34'611.8
2017-Oct-09 02:00N 34°56' E 139°29'  

Dump ship's entire track history